createdAt,value
2018-06-23T00:04:09.774Z,23.63
2018-06-23T00:09:07.133Z,25.70
2018-06-23T00:14:02.324Z,21.77
2018-06-23T00:18:57.635Z,17.67
2018-06-23T00:23:53.821Z,27.27
2018-06-23T00:28:49.004Z,25.63
2018-06-23T00:33:44.038Z,20.73
2018-06-23T00:38:38.954Z,21.73
2018-06-23T00:43:34.117Z,25.83
2018-06-23T00:48:28.770Z,19.37
2018-06-23T00:53:24.045Z,20.63
2018-06-23T00:58:18.968Z,26.43
2018-06-23T01:03:14.164Z,20.53
2018-06-23T01:08:08.748Z,25.50
2018-06-23T01:13:04.114Z,19.00
2018-06-23T01:17:58.729Z,24.87
2018-06-23T01:22:54.142Z,24.17
2018-06-23T01:27:49.095Z,26.77
2018-06-23T01:32:44.397Z,28.90
2018-06-23T01:37:39.709Z,32.60
2018-06-23T01:42:34.735Z,22.37
2018-06-23T01:47:30.362Z,20.23
2018-06-23T01:52:25.388Z,21.20
2018-06-23T01:57:20.276Z,29.70
2018-06-23T02:02:15.529Z,24.40
2018-06-23T02:07:10.844Z,25.13
2018-06-23T02:12:06.051Z,30.73
2018-06-23T02:17:06.410Z,29.10
2018-06-23T02:22:06.289Z,24.90
2018-06-23T02:27:06.123Z,26.57
2018-06-23T02:32:06.324Z,25.80
2018-06-23T02:37:01.501Z,19.10
2018-06-23T02:41:56.998Z,29.33
2018-06-23T02:46:52.051Z,27.37
2018-06-23T02:51:47.355Z,25.17
2018-06-23T02:56:42.825Z,33.80
2018-06-23T03:01:38.385Z,23.67
2018-06-23T03:06:34.512Z,22.97
2018-06-23T03:11:29.363Z,24.37
2018-06-23T03:16:24.744Z,26.23
2018-06-23T03:21:19.912Z,28.37
2018-06-23T03:26:16.512Z,28.23
2018-06-23T03:31:11.326Z,32.60
2018-06-23T03:36:06.947Z,27.13
2018-06-23T03:41:01.896Z,27.40
2018-06-23T03:45:56.710Z,28.43
2018-06-23T03:50:51.343Z,27.17
2018-06-23T03:55:45.874Z,21.50
2018-06-23T04:00:44.447Z,25.87
2018-06-23T04:05:45.123Z,25.43
2018-06-23T04:10:39.419Z,23.50
2018-06-23T04:15:34.553Z,22.90
2018-06-23T04:20:30.551Z,21.73
2018-06-23T04:25:26.954Z,24.83
2018-06-23T04:30:22.520Z,18.90
2018-06-23T04:35:17.310Z,14.77
2018-06-23T04:40:12.748Z,19.13
2018-06-23T04:45:08.069Z,22.57
2018-06-23T04:50:03.542Z,16.50
2018-06-23T04:54:58.898Z,24.07
2018-06-23T04:59:54.289Z,19.00
2018-06-23T05:04:51.361Z,14.77
2018-06-23T05:09:46.475Z,18.73
2018-06-23T05:14:41.700Z,17.63
2018-06-23T05:19:37.165Z,17.13
2018-06-23T05:24:32.855Z,14.00
2018-06-23T05:29:27.876Z,15.30
2018-06-23T05:34:22.523Z,15.73
2018-06-23T05:39:18.096Z,13.37
2018-06-23T05:44:12.818Z,16.90
2018-06-23T05:49:08.477Z,19.00
2018-06-23T05:54:04.397Z,15.73
2018-06-23T05:59:00.337Z,18.93
2018-06-23T06:03:56.031Z,16.67
2018-06-23T06:08:51.332Z,18.77
2018-06-23T06:13:46.569Z,16.33
2018-06-23T06:18:41.047Z,20.40
2018-06-23T06:23:35.399Z,16.67
2018-06-23T06:28:29.784Z,18.67
2018-06-23T06:33:24.275Z,14.87
2018-06-23T06:38:19.342Z,16.33
2018-06-23T06:43:13.939Z,16.47
2018-06-23T06:48:09.002Z,13.77
2018-06-23T06:53:03.540Z,14.80
2018-06-23T06:57:58.523Z,15.60
2018-06-23T07:02:53.261Z,14.20
2018-06-23T07:07:48.011Z,13.73
2018-06-23T07:12:42.678Z,15.30
2018-06-23T07:17:37.399Z,17.77
2018-06-23T07:22:32.407Z,15.07
2018-06-23T07:27:26.911Z,20.47
2018-06-23T07:32:21.615Z,15.23
2018-06-23T07:37:16.149Z,12.00
2018-06-23T07:42:10.923Z,16.00
2018-06-23T07:47:06.506Z,13.17
2018-06-23T07:52:00.862Z,13.33
2018-06-23T07:56:55.730Z,14.17
2018-06-23T08:01:50.027Z,17.60
2018-06-23T08:06:44.320Z,18.83
2018-06-23T08:11:39.482Z,18.23
2018-06-23T08:16:34.645Z,43.67
2018-06-23T08:21:29.780Z,29.80
2018-06-23T08:26:24.792Z,18.83
2018-06-23T08:31:19.763Z,19.80
2018-06-23T08:36:14.566Z,20.57
2018-06-23T08:41:09.057Z,14.67
2018-06-23T08:46:03.893Z,10.53
2018-06-23T08:50:58.501Z,11.40
2018-06-23T08:55:53.308Z,12.18
2018-06-23T09:00:48.475Z,9.73
2018-06-23T09:05:43.554Z,8.33
2018-06-23T09:10:38.123Z,8.43
2018-06-23T09:15:32.952Z,10.90
2018-06-23T09:20:28.079Z,11.10
2018-06-23T09:25:23.195Z,9.43
2018-06-23T09:30:18.408Z,10.63
2018-06-23T09:35:13.492Z,12.20
2018-06-23T09:40:09.009Z,9.27
2018-06-23T09:45:03.923Z,9.43
2018-06-23T09:49:58.747Z,9.07
2018-06-23T09:54:53.508Z,12.77
2018-06-23T09:59:48.504Z,11.03
2018-06-23T10:04:42.865Z,12.00
2018-06-23T10:09:37.595Z,10.80
2018-06-23T10:14:32.403Z,11.93
2018-06-23T10:19:27.009Z,10.83
2018-06-23T10:24:21.938Z,8.87
2018-06-23T10:29:16.699Z,8.40
2018-06-23T10:34:11.627Z,10.07
2018-06-23T10:39:10.602Z,10.23
2018-06-23T10:44:05.111Z,8.07
2018-06-23T10:48:59.586Z,12.10
2018-06-23T10:53:54.184Z,10.57
2018-06-23T10:58:48.696Z,9.30
2018-06-23T11:03:43.588Z,9.30
2018-06-23T11:08:38.423Z,7.27
2018-06-23T11:13:33.233Z,9.00
2018-06-23T11:18:27.942Z,9.40
2018-06-23T11:23:22.498Z,5.13
2018-06-23T11:28:17.269Z,7.57
2018-06-23T11:33:11.816Z,6.30
2018-06-23T11:38:06.837Z,8.47
2018-06-23T11:43:01.729Z,6.30
2018-06-23T11:47:56.622Z,6.97
2018-06-23T11:52:51.346Z,3.30
2018-06-23T11:57:46.140Z,6.77
2018-06-23T12:02:41.474Z,5.40
2018-06-23T12:07:36.257Z,7.90
2018-06-23T12:12:30.878Z,7.73
2018-06-23T12:17:25.514Z,6.60
2018-06-23T12:22:20.146Z,7.50
2018-06-23T12:27:14.832Z,8.03
2018-06-23T12:32:09.903Z,9.53
2018-06-23T12:37:04.816Z,7.33
2018-06-23T12:41:59.679Z,7.67
2018-06-23T12:46:54.510Z,7.53
2018-06-23T12:51:49.593Z,8.33
2018-06-23T12:56:44.192Z,8.53
2018-06-23T13:01:41.009Z,5.63
2018-06-23T13:06:35.538Z,10.87
2018-06-23T13:11:30.272Z,6.03
2018-06-23T13:16:25.061Z,7.47
2018-06-23T13:21:19.722Z,6.27
2018-06-23T13:26:14.192Z,8.60
2018-06-23T13:31:09.018Z,5.30
2018-06-23T13:36:03.700Z,11.23
2018-06-23T13:41:01.824Z,8.23
2018-06-23T13:45:56.414Z,8.07
2018-06-23T13:50:51.372Z,6.73
2018-06-23T13:55:45.626Z,6.30
2018-06-23T14:00:40.560Z,7.00
2018-06-23T14:05:35.591Z,7.60
2018-06-23T14:10:30.110Z,7.27
2018-06-23T14:15:24.504Z,8.23
2018-06-23T14:20:19.492Z,7.87
2018-06-23T14:25:14.259Z,5.73
2018-06-23T14:30:08.888Z,5.03
2018-06-23T14:35:03.368Z,4.53
2018-06-23T14:39:57.868Z,5.87
2018-06-23T14:44:53.062Z,7.33
2018-06-23T14:49:47.705Z,8.87
2018-06-23T14:54:42.652Z,6.67
2018-06-23T14:59:37.694Z,4.70
2018-06-23T15:04:32.914Z,5.50
2018-06-23T15:09:44.427Z,7.13
2018-06-23T15:14:39.216Z,4.20
2018-06-23T15:19:34.060Z,6.20
2018-06-23T15:24:29.144Z,6.30
2018-06-23T15:29:23.751Z,10.67
2018-06-23T15:34:18.813Z,8.63
2018-06-23T15:39:13.580Z,7.57
2018-06-23T15:44:08.037Z,6.27
2018-06-23T15:49:02.703Z,7.30
2018-06-23T15:53:57.853Z,3.73
2018-06-23T15:58:52.378Z,7.30
2018-06-23T16:03:46.880Z,5.40
2018-06-23T16:08:41.744Z,5.80
2018-06-23T16:13:36.413Z,6.97
2018-06-23T16:18:31.163Z,7.50
2018-06-23T16:23:25.870Z,6.37
2018-06-23T16:28:20.682Z,4.40
2018-06-23T16:33:15.299Z,4.70
2018-06-23T16:38:09.873Z,8.27
2018-06-23T16:43:04.638Z,4.20
2018-06-23T16:47:59.064Z,4.90
2018-06-23T16:52:53.874Z,5.67
2018-06-23T16:57:48.439Z,8.53
2018-06-23T17:02:43.145Z,5.97
2018-06-23T17:07:37.920Z,8.93
2018-06-23T17:12:32.595Z,7.83
2018-06-23T17:17:41.621Z,5.63
2018-06-23T17:22:36.597Z,7.57
2018-06-23T17:27:30.987Z,5.50
2018-06-23T17:32:25.720Z,7.43
2018-06-23T17:37:20.353Z,6.60
2018-06-23T17:42:14.838Z,5.97
2018-06-23T17:47:09.638Z,10.03
2018-06-23T17:52:04.242Z,7.10
2018-06-23T17:57:07.809Z,6.00
2018-06-23T18:02:13.828Z,4.70
2018-06-23T18:07:08.758Z,6.03
2018-06-23T18:12:03.639Z,9.00
2018-06-23T18:16:58.283Z,5.13
2018-06-23T18:21:53.039Z,6.90
2018-06-23T18:26:47.648Z,7.13
2018-06-23T18:31:42.298Z,7.83
2018-06-23T18:36:37.148Z,8.30
2018-06-23T18:41:33.412Z,7.07
2018-06-23T18:46:29.955Z,6.53
2018-06-23T18:51:25.848Z,6.10
2018-06-23T18:56:20.331Z,6.13
2018-06-23T19:01:16.146Z,4.40
2018-06-23T19:06:13.669Z,5.77
2018-06-23T19:11:08.873Z,5.63
2018-06-23T19:16:03.427Z,7.90
2018-06-23T19:20:58.465Z,5.80
2018-06-23T19:25:53.692Z,6.13
2018-06-23T19:30:50.465Z,9.80
2018-06-23T19:35:45.048Z,7.83
2018-06-23T19:40:39.583Z,4.17
2018-06-23T19:45:34.330Z,6.47
2018-06-23T19:50:28.944Z,5.70
2018-06-23T19:55:23.828Z,10.47
2018-06-23T20:00:18.328Z,7.03
2018-06-23T20:05:12.800Z,7.90
2018-06-23T20:10:07.531Z,5.40
2018-06-23T20:15:02.318Z,8.53
2018-06-23T20:19:56.846Z,8.30
2018-06-23T20:24:51.551Z,7.80
2018-06-23T20:29:46.189Z,9.73
2018-06-23T20:34:40.910Z,8.00
2018-06-23T20:39:35.408Z,10.90
2018-06-23T20:44:29.908Z,10.63
2018-06-23T20:49:24.443Z,8.23
2018-06-23T20:54:19.354Z,7.37
2018-06-23T20:59:14.046Z,11.53
2018-06-23T21:04:08.728Z,8.87
2018-06-23T21:09:03.226Z,12.43
2018-06-23T21:13:57.774Z,9.70
2018-06-23T21:18:52.402Z,11.77
2018-06-23T21:23:46.887Z,11.43
2018-06-23T21:28:41.651Z,8.83
2018-06-23T21:33:36.211Z,10.87
2018-06-23T21:38:30.693Z,10.00
2018-06-23T21:43:25.372Z,10.23
2018-06-23T21:48:20.894Z,11.33
2018-06-23T21:53:15.741Z,9.93
2018-06-23T21:58:12.413Z,12.37
2018-06-23T22:03:08.384Z,8.17
2018-06-23T22:08:02.842Z,8.73
2018-06-23T22:12:57.496Z,10.43
2018-06-23T22:17:56.481Z,9.77
2018-06-23T22:23:01.899Z,9.63
2018-06-23T22:27:58.599Z,8.70
2018-06-23T22:33:01.065Z,11.23
2018-06-23T22:37:55.995Z,11.27
2018-06-23T22:42:50.499Z,10.40
2018-06-23T22:47:44.998Z,9.07
2018-06-23T22:52:39.756Z,10.17
2018-06-23T22:57:34.221Z,9.90
2018-06-23T23:02:28.736Z,13.77
2018-06-23T23:07:23.774Z,14.53
2018-06-23T23:12:18.354Z,13.87
2018-06-23T23:17:13.034Z,8.40
2018-06-23T23:22:07.620Z,11.00
2018-06-23T23:27:02.459Z,10.13
2018-06-23T23:31:57.811Z,9.77
2018-06-23T23:36:52.598Z,12.37
2018-06-23T23:41:50.481Z,10.83
2018-06-23T23:46:45.182Z,16.20
2018-06-23T23:51:40.238Z,9.90
2018-06-23T23:56:35.042Z,14.40
